sensor_id;sensor_type;location;lat;lon;timestamp;P1;durP1;ratioP1;P2;durP2;ratioP2
27408;SDS011;20413;50.782;7.152;2023-02-26T00:00:11;12.10;;;5.00;;
27408;SDS011;20413;50.782;7.152;2023-02-26T00:02:39;12.07;;;4.93;;
27408;SDS011;20413;50.782;7.152;2023-02-26T00:05:06;10.45;;;3.65;;
27408;SDS011;20413;50.782;7.152;2023-02-26T00:07:33;9.95;;;4.82;;
27408;SDS011;20413;50.782;7.152;2023-02-26T00:09:59;14.15;;;4.20;;
27408;SDS011;20413;50.782;7.152;2023-02-26T00:12:26;7.78;;;2.90;;
27408;SDS011;20413;50.782;7.152;2023-02-26T00:14:53;10.35;;;3.72;;
27408;SDS011;20413;50.782;7.152;2023-02-26T00:19:51;11.27;;;3.97;;
27408;SDS011;20413;50.782;7.152;2023-02-26T00:22:17;13.18;;;4.35;;
27408;SDS011;20413;50.782;7.152;2023-02-26T00:24:43;14.20;;;4.38;;
27408;SDS011;20413;50.782;7.152;2023-02-26T00:27:10;12.93;;;3.95;;
27408;SDS011;20413;50.782;7.152;2023-02-26T00:29:36;12.13;;;3.83;;
27408;SDS011;20413;50.782;7.152;2023-02-26T00:32:02;10.73;;;4.43;;
27408;SDS011;20413;50.782;7.152;2023-02-26T00:34:29;9.68;;;3.03;;
27408;SDS011;20413;50.782;7.152;2023-02-26T00:39:42;12.18;;;3.80;;
27408;SDS011;20413;50.782;7.152;2023-02-26T00:42:10;11.48;;;3.58;;
27408;SDS011;20413;50.782;7.152;2023-02-26T00:44:36;12.27;;;3.47;;
27408;SDS011;20413;50.782;7.152;2023-02-26T00:49:44;9.85;;;3.83;;
27408;SDS011;20413;50.782;7.152;2023-02-26T00:55:10;10.27;;;4.03;;
27408;SDS011;20413;50.782;7.152;2023-02-26T00:57:35;10.30;;;3.53;;
27408;SDS011;20413;50.782;7.152;2023-02-26T01:00:02;9.45;;;3.80;;
27408;SDS011;20413;50.782;7.152;2023-02-26T01:02:31;9.60;;;3.92;;
27408;SDS011;20413;50.782;7.152;2023-02-26T01:04:56;11.85;;;4.13;;
27408;SDS011;20413;50.782;7.152;2023-02-26T01:07:22;8.65;;;3.72;;
27408;SDS011;20413;50.782;7.152;2023-02-26T01:09:48;11.18;;;3.70;;
27408;SDS011;20413;50.782;7.152;2023-02-26T01:12:14;11.23;;;3.70;;
27408;SDS011;20413;50.782;7.152;2023-02-26T01:14:41;10.35;;;3.63;;
27408;SDS011;20413;50.782;7.152;2023-02-26T01:19:40;12.85;;;4.25;;
27408;SDS011;20413;50.782;7.152;2023-02-26T01:22:20;8.55;;;3.65;;
27408;SDS011;20413;50.782;7.152;2023-02-26T01:25:01;10.15;;;3.30;;
27408;SDS011;20413;50.782;7.152;2023-02-26T01:27:29;9.48;;;3.50;;
27408;SDS011;20413;50.782;7.152;2023-02-26T01:30:05;7.30;;;3.45;;
27408;SDS011;20413;50.782;7.152;2023-02-26T01:37:58;8.15;;;3.10;;
27408;SDS011;20413;50.782;7.152;2023-02-26T01:40:36;7.50;;;3.78;;
27408;SDS011;20413;50.782;7.152;2023-02-26T01:43:12;10.57;;;3.97;;
27408;SDS011;20413;50.782;7.152;2023-02-26T01:46:11;15.88;;;3.47;;
27408;SDS011;20413;50.782;7.152;2023-02-26T01:48:47;11.07;;;3.95;;
27408;SDS011;20413;50.782;7.152;2023-02-26T01:51:15;12.57;;;3.60;;
27408;SDS011;20413;50.782;7.152;2023-02-26T01:53:41;9.27;;;3.67;;
27408;SDS011;20413;50.782;7.152;2023-02-26T01:56:17;8.93;;;3.58;;
27408;SDS011;20413;50.782;7.152;2023-02-26T01:58:43;9.88;;;3.70;;
27408;SDS011;20413;50.782;7.152;2023-02-26T02:01:12;7.72;;;3.60;;
27408;SDS011;20413;50.782;7.152;2023-02-26T02:03:38;11.00;;;3.40;;
27408;SDS011;20413;50.782;7.152;2023-02-26T02:06:24;10.18;;;3.38;;
27408;SDS011;20413;50.782;7.152;2023-02-26T02:08:51;11.30;;;3.80;;
27408;SDS011;20413;50.782;7.152;2023-02-26T02:11:17;10.77;;;3.42;;
27408;SDS011;20413;50.782;7.152;2023-02-26T02:13:54;11.85;;;4.15;;
27408;SDS011;20413;50.782;7.152;2023-02-26T02:16:29;7.53;;;3.55;;
27408;SDS011;20413;50.782;7.152;2023-02-26T02:25:19;11.60;;;3.70;;
27408;SDS011;20413;50.782;7.152;2023-02-26T02:31:04;12.48;;;3.65;;
27408;SDS011;20413;50.782;7.152;2023-02-26T02:33:54;11.07;;;3.53;;
27408;SDS011;20413;50.782;7.152;2023-02-26T02:39:07;8.35;;;3.80;;
27408;SDS011;20413;50.782;7.152;2023-02-26T02:41:38;6.97;;;3.58;;
27408;SDS011;20413;50.782;7.152;2023-02-26T02:44:09;11.57;;;3.70;;
27408;SDS011;20413;50.782;7.152;2023-02-26T02:46:38;10.77;;;3.97;;
27408;SDS011;20413;50.782;7.152;2023-02-26T02:49:08;5.57;;;3.10;;
27408;SDS011;20413;50.782;7.152;2023-02-26T02:51:40;9.75;;;3.38;;
27408;SDS011;20413;50.782;7.152;2023-02-26T02:54:34;13.13;;;4.20;;
27408;SDS011;20413;50.782;7.152;2023-02-26T02:58:10;8.07;;;3.72;;
27408;SDS011;20413;50.782;7.152;2023-02-26T03:00:08;8.75;;;4.30;;
27408;SDS011;20413;50.782;7.152;2023-02-26T03:02:46;8.68;;;3.88;;
27408;SDS011;20413;50.782;7.152;2023-02-26T03:05:32;9.38;;;3.65;;
27408;SDS011;20413;50.782;7.152;2023-02-26T03:08:00;10.93;;;3.75;;
27408;SDS011;20413;50.782;7.152;2023-02-26T03:10:29;13.60;;;4.30;;
27408;SDS011;20413;50.782;7.152;2023-02-26T03:12:55;11.52;;;4.40;;
27408;SDS011;20413;50.782;7.152;2023-02-26T03:15:30;11.77;;;4.78;;
27408;SDS011;20413;50.782;7.152;2023-02-26T03:18:18;9.75;;;4.47;;
27408;SDS011;20413;50.782;7.152;2023-02-26T03:23:42;9.57;;;3.83;;
27408;SDS011;20413;50.782;7.152;2023-02-26T03:26:18;6.97;;;3.80;;
27408;SDS011;20413;50.782;7.152;2023-02-26T03:29:10;10.82;;;4.55;;
27408;SDS011;20413;50.782;7.152;2023-02-26T03:31:58;12.85;;;4.40;;
27408;SDS011;20413;50.782;7.152;2023-02-26T03:34:31;7.78;;;4.35;;
27408;SDS011;20413;50.782;7.152;2023-02-26T03:37:20;10.02;;;4.40;;
27408;SDS011;20413;50.782;7.152;2023-02-26T03:39:52;9.73;;;4.05;;
27408;SDS011;20413;50.782;7.152;2023-02-26T03:42:27;5.53;;;3.80;;
27408;SDS011;20413;50.782;7.152;2023-02-26T03:45:00;10.13;;;4.00;;
27408;SDS011;20413;50.782;7.152;2023-02-26T03:47:30;7.65;;;4.20;;
27408;SDS011;20413;50.782;7.152;2023-02-26T03:50:11;9.95;;;4.18;;
27408;SDS011;20413;50.782;7.152;2023-02-26T03:52:44;8.55;;;3.88;;
27408;SDS011;20413;50.782;7.152;2023-02-26T03:55:16;9.13;;;4.07;;
27408;SDS011;20413;50.782;7.152;2023-02-26T03:57:49;25.15;;;4.65;;
27408;SDS011;20413;50.782;7.152;2023-02-26T04:00:15;6.53;;;4.38;;
27408;SDS011;20413;50.782;7.152;2023-02-26T04:02:44;6.70;;;2.67;;
27408;SDS011;20413;50.782;7.152;2023-02-26T04:05:42;9.60;;;3.58;;
27408;SDS011;20413;50.782;7.152;2023-02-26T04:08:12;6.88;;;3.35;;
27408;SDS011;20413;50.782;7.152;2023-02-26T04:10:43;8.05;;;3.58;;
27408;SDS011;20413;50.782;7.152;2023-02-26T04:13:18;10.45;;;3.72;;
27408;SDS011;20413;50.782;7.152;2023-02-26T04:15:43;5.65;;;3.60;;
27408;SDS011;20413;50.782;7.152;2023-02-26T04:18:09;6.43;;;3.33;;
27408;SDS011;20413;50.782;7.152;2023-02-26T04:20:35;7.80;;;3.58;;
27408;SDS011;20413;50.782;7.152;2023-02-26T04:23:00;6.22;;;3.50;;
27408;SDS011;20413;50.782;7.152;2023-02-26T04:25:26;6.95;;;3.55;;
27408;SDS011;20413;50.782;7.152;2023-02-26T04:27:51;6.38;;;3.30;;
27408;SDS011;20413;50.782;7.152;2023-02-26T04:30:17;8.63;;;3.40;;
27408;SDS011;20413;50.782;7.152;2023-02-26T04:32:43;7.85;;;3.40;;
27408;SDS011;20413;50.782;7.152;2023-02-26T04:35:08;6.90;;;3.20;;
27408;SDS011;20413;50.782;7.152;2023-02-26T04:37:34;11.13;;;4.07;;
27408;SDS011;20413;50.782;7.152;2023-02-26T04:39:59;6.50;;;3.58;;
27408;SDS011;20413;50.782;7.152;2023-02-26T04:42:25;6.97;;;3.08;;
27408;SDS011;20413;50.782;7.152;2023-02-26T04:44:51;5.70;;;3.42;;
27408;SDS011;20413;50.782;7.152;2023-02-26T04:47:16;7.45;;;3.45;;
27408;SDS011;20413;50.782;7.152;2023-02-26T04:49:42;5.72;;;3.22;;
27408;SDS011;20413;50.782;7.152;2023-02-26T04:52:07;8.27;;;3.67;;
27408;SDS011;20413;50.782;7.152;2023-02-26T04:54:33;4.82;;;3.20;;
27408;SDS011;20413;50.782;7.152;2023-02-26T04:56:58;9.07;;;3.60;;
27408;SDS011;20413;50.782;7.152;2023-02-26T04:59:24;9.85;;;3.60;;
27408;SDS011;20413;50.782;7.152;2023-02-26T05:01:50;7.93;;;3.75;;
27408;SDS011;20413;50.782;7.152;2023-02-26T05:04:15;8.23;;;3.53;;
27408;SDS011;20413;50.782;7.152;2023-02-26T05:06:41;9.98;;;3.30;;
27408;SDS011;20413;50.782;7.152;2023-02-26T05:09:06;8.02;;;3.20;;
27408;SDS011;20413;50.782;7.152;2023-02-26T05:11:32;8.63;;;3.70;;
27408;SDS011;20413;50.782;7.152;2023-02-26T05:13:57;4.68;;;3.10;;
27408;SDS011;20413;50.782;7.152;2023-02-26T05:16:23;5.75;;;3.13;;
27408;SDS011;20413;50.782;7.152;2023-02-26T05:18:48;6.53;;;3.40;;
27408;SDS011;20413;50.782;7.152;2023-02-26T05:21:14;8.63;;;3.38;;
27408;SDS011;20413;50.782;7.152;2023-02-26T05:23:40;6.32;;;3.15;;
27408;SDS011;20413;50.782;7.152;2023-02-26T05:26:05;5.13;;;2.92;;
27408;SDS011;20413;50.782;7.152;2023-02-26T05:28:31;7.00;;;3.40;;
27408;SDS011;20413;50.782;7.152;2023-02-26T05:30:57;4.78;;;2.83;;
27408;SDS011;20413;50.782;7.152;2023-02-26T05:33:23;6.85;;;3.22;;
27408;SDS011;20413;50.782;7.152;2023-02-26T05:35:49;6.32;;;3.53;;
27408;SDS011;20413;50.782;7.152;2023-02-26T05:38:14;11.40;;;3.38;;
27408;SDS011;20413;50.782;7.152;2023-02-26T05:40:40;7.32;;;3.03;;
27408;SDS011;20413;50.782;7.152;2023-02-26T05:43:06;6.85;;;3.03;;
27408;SDS011;20413;50.782;7.152;2023-02-26T05:45:32;6.10;;;2.80;;
27408;SDS011;20413;50.782;7.152;2023-02-26T05:47:58;3.78;;;2.67;;
27408;SDS011;20413;50.782;7.152;2023-02-26T05:50:23;9.13;;;2.70;;
27408;SDS011;20413;50.782;7.152;2023-02-26T05:52:49;8.52;;;3.20;;
27408;SDS011;20413;50.782;7.152;2023-02-26T05:55:15;9.75;;;3.13;;
27408;SDS011;20413;50.782;7.152;2023-02-26T05:57:41;7.85;;;2.70;;
27408;SDS011;20413;50.782;7.152;2023-02-26T06:00:07;5.22;;;2.42;;
27408;SDS011;20413;50.782;7.152;2023-02-26T06:02:33;5.72;;;2.55;;
27408;SDS011;20413;50.782;7.152;2023-02-26T06:04:59;7.10;;;2.90;;
27408;SDS011;20413;50.782;7.152;2023-02-26T06:07:24;5.60;;;2.78;;
27408;SDS011;20413;50.782;7.152;2023-02-26T06:09:50;7.97;;;2.70;;
27408;SDS011;20413;50.782;7.152;2023-02-26T06:12:16;8.07;;;3.60;;
27408;SDS011;20413;50.782;7.152;2023-02-26T06:14:41;4.90;;;2.42;;
27408;SDS011;20413;50.782;7.152;2023-02-26T06:17:07;6.93;;;2.50;;
27408;SDS011;20413;50.782;7.152;2023-02-26T06:19:33;4.05;;;2.10;;
27408;SDS011;20413;50.782;7.152;2023-02-26T06:21:58;7.38;;;2.45;;
27408;SDS011;20413;50.782;7.152;2023-02-26T06:24:24;4.70;;;2.75;;
27408;SDS011;20413;50.782;7.152;2023-02-26T06:26:50;5.10;;;2.40;;
27408;SDS011;20413;50.782;7.152;2023-02-26T06:29:16;4.32;;;2.22;;
27408;SDS011;20413;50.782;7.152;2023-02-26T06:31:45;4.13;;;3.08;;
27408;SDS011;20413;50.782;7.152;2023-02-26T06:34:11;4.80;;;2.13;;
27408;SDS011;20413;50.782;7.152;2023-02-26T06:36:37;4.72;;;2.10;;
27408;SDS011;20413;50.782;7.152;2023-02-26T06:39:03;4.50;;;2.03;;
27408;SDS011;20413;50.782;7.152;2023-02-26T06:41:29;6.20;;;2.13;;
27408;SDS011;20413;50.782;7.152;2023-02-26T06:43:55;5.15;;;2.67;;
27408;SDS011;20413;50.782;7.152;2023-02-26T06:46:20;8.23;;;3.08;;
27408;SDS011;20413;50.782;7.152;2023-02-26T06:48:46;6.55;;;2.47;;
27408;SDS011;20413;50.782;7.152;2023-02-26T06:51:11;5.85;;;2.25;;
27408;SDS011;20413;50.782;7.152;2023-02-26T06:53:37;4.22;;;2.50;;
27408;SDS011;20413;50.782;7.152;2023-02-26T06:56:03;5.78;;;2.40;;
27408;SDS011;20413;50.782;7.152;2023-02-26T06:58:28;4.95;;;2.33;;
27408;SDS011;20413;50.782;7.152;2023-02-26T07:00:54;6.43;;;3.25;;
27408;SDS011;20413;50.782;7.152;2023-02-26T07:03:19;6.18;;;3.20;;
27408;SDS011;20413;50.782;7.152;2023-02-26T07:05:45;6.13;;;2.80;;
27408;SDS011;20413;50.782;7.152;2023-02-26T07:08:11;7.25;;;3.13;;
27408;SDS011;20413;50.782;7.152;2023-02-26T07:10:37;9.15;;;3.42;;
27408;SDS011;20413;50.782;7.152;2023-02-26T07:13:04;6.20;;;3.30;;
27408;SDS011;20413;50.782;7.152;2023-02-26T07:15:30;8.43;;;3.22;;
27408;SDS011;20413;50.782;7.152;2023-02-26T07:17:56;7.35;;;3.20;;
27408;SDS011;20413;50.782;7.152;2023-02-26T07:20:23;6.43;;;3.60;;
27408;SDS011;20413;50.782;7.152;2023-02-26T07:22:50;6.82;;;3.78;;
27408;SDS011;20413;50.782;7.152;2023-02-26T07:25:15;5.80;;;3.80;;
27408;SDS011;20413;50.782;7.152;2023-02-26T07:27:41;7.95;;;3.70;;
27408;SDS011;20413;50.782;7.152;2023-02-26T07:30:07;5.82;;;3.42;;
27408;SDS011;20413;50.782;7.152;2023-02-26T07:32:33;5.50;;;4.05;;
27408;SDS011;20413;50.782;7.152;2023-02-26T07:34:59;5.38;;;3.65;;
27408;SDS011;20413;50.782;7.152;2023-02-26T07:37:24;5.20;;;3.50;;
27408;SDS011;20413;50.782;7.152;2023-02-26T07:39:50;4.88;;;3.17;;
27408;SDS011;20413;50.782;7.152;2023-02-26T07:42:16;7.35;;;3.13;;
27408;SDS011;20413;50.782;7.152;2023-02-26T07:44:42;8.57;;;3.28;;
27408;SDS011;20413;50.782;7.152;2023-02-26T07:47:07;7.78;;;3.40;;
27408;SDS011;20413;50.782;7.152;2023-02-26T07:49:33;5.68;;;3.42;;
27408;SDS011;20413;50.782;7.152;2023-02-26T07:51:59;6.10;;;3.40;;
27408;SDS011;20413;50.782;7.152;2023-02-26T07:54:25;7.25;;;3.58;;
27408;SDS011;20413;50.782;7.152;2023-02-26T07:56:50;6.70;;;3.58;;
27408;SDS011;20413;50.782;7.152;2023-02-26T07:59:16;4.45;;;3.30;;
27408;SDS011;20413;50.782;7.152;2023-02-26T08:01:41;9.88;;;3.65;;
27408;SDS011;20413;50.782;7.152;2023-02-26T08:04:07;8.43;;;3.47;;
27408;SDS011;20413;50.782;7.152;2023-02-26T08:06:33;6.47;;;4.20;;
27408;SDS011;20413;50.782;7.152;2023-02-26T08:08:59;8.65;;;3.40;;
27408;SDS011;20413;50.782;7.152;2023-02-26T08:11:25;6.18;;;3.45;;
27408;SDS011;20413;50.782;7.152;2023-02-26T08:13:51;9.55;;;3.30;;
27408;SDS011;20413;50.782;7.152;2023-02-26T08:16:16;7.18;;;3.60;;
27408;SDS011;20413;50.782;7.152;2023-02-26T08:18:42;6.15;;;3.40;;
27408;SDS011;20413;50.782;7.152;2023-02-26T08:21:07;9.02;;;2.95;;
27408;SDS011;20413;50.782;7.152;2023-02-26T08:23:34;7.60;;;2.80;;
27408;SDS011;20413;50.782;7.152;2023-02-26T08:26:04;5.82;;;3.10;;
27408;SDS011;20413;50.782;7.152;2023-02-26T08:28:34;8.50;;;3.40;;
27408;SDS011;20413;50.782;7.152;2023-02-26T08:31:00;8.20;;;3.50;;
27408;SDS011;20413;50.782;7.152;2023-02-26T08:33:26;6.93;;;3.15;;
27408;SDS011;20413;50.782;7.152;2023-02-26T08:35:52;5.82;;;2.70;;
27408;SDS011;20413;50.782;7.152;2023-02-26T08:38:19;3.83;;;2.13;;
27408;SDS011;20413;50.782;7.152;2023-02-26T08:40:47;4.63;;;2.28;;
27408;SDS011;20413;50.782;7.152;2023-02-26T08:43:13;4.35;;;2.20;;
27408;SDS011;20413;50.782;7.152;2023-02-26T08:45:39;4.22;;;2.22;;
27408;SDS011;20413;50.782;7.152;2023-02-26T08:48:04;2.55;;;1.52;;
27408;SDS011;20413;50.782;7.152;2023-02-26T08:50:30;3.65;;;2.10;;
27408;SDS011;20413;50.782;7.152;2023-02-26T08:52:56;4.15;;;1.83;;
27408;SDS011;20413;50.782;7.152;2023-02-26T08:55:21;3.97;;;1.90;;
27408;SDS011;20413;50.782;7.152;2023-02-26T08:57:47;5.65;;;1.85;;
27408;SDS011;20413;50.782;7.152;2023-02-26T09:00:13;3.22;;;1.85;;
27408;SDS011;20413;50.782;7.152;2023-02-26T09:02:42;3.75;;;1.80;;
27408;SDS011;20413;50.782;7.152;2023-02-26T09:05:08;4.95;;;1.77;;
27408;SDS011;20413;50.782;7.152;2023-02-26T09:07:35;4.13;;;1.98;;
27408;SDS011;20413;50.782;7.152;2023-02-26T09:10:01;3.38;;;1.50;;
27408;SDS011;20413;50.782;7.152;2023-02-26T09:12:27;5.05;;;1.80;;
27408;SDS011;20413;50.782;7.152;2023-02-26T09:14:53;4.72;;;2.20;;
27408;SDS011;20413;50.782;7.152;2023-02-26T09:17:19;5.90;;;1.98;;
27408;SDS011;20413;50.782;7.152;2023-02-26T09:19:44;2.17;;;1.60;;
27408;SDS011;20413;50.782;7.152;2023-02-26T09:22:10;2.67;;;1.50;;
27408;SDS011;20413;50.782;7.152;2023-02-26T09:24:35;3.55;;;1.92;;
27408;SDS011;20413;50.782;7.152;2023-02-26T09:27:01;5.43;;;2.20;;
27408;SDS011;20413;50.782;7.152;2023-02-26T09:29:27;4.00;;;1.90;;
27408;SDS011;20413;50.782;7.152;2023-02-26T09:31:53;5.50;;;1.92;;
27408;SDS011;20413;50.782;7.152;2023-02-26T09:34:19;3.42;;;2.30;;
27408;SDS011;20413;50.782;7.152;2023-02-26T09:36:44;5.97;;;1.75;;
27408;SDS011;20413;50.782;7.152;2023-02-26T09:39:10;3.50;;;1.70;;
27408;SDS011;20413;50.782;7.152;2023-02-26T09:41:43;4.05;;;1.75;;
27408;SDS011;20413;50.782;7.152;2023-02-26T09:46:58;5.95;;;1.85;;
27408;SDS011;20413;50.782;7.152;2023-02-26T09:52:44;4.00;;;1.65;;
27408;SDS011;20413;50.782;7.152;2023-02-26T09:55:33;3.00;;;1.90;;
27408;SDS011;20413;50.782;7.152;2023-02-26T09:58:18;3.05;;;1.48;;
27408;SDS011;20413;50.782;7.152;2023-02-26T10:00:56;1.85;;;1.30;;
27408;SDS011;20413;50.782;7.152;2023-02-26T10:03:29;3.25;;;1.17;;
27408;SDS011;20413;50.782;7.152;2023-02-26T10:17:04;3.50;;;1.15;;
27408;SDS011;20413;50.782;7.152;2023-02-26T10:19:39;3.50;;;1.30;;
27408;SDS011;20413;50.782;7.152;2023-02-26T10:22:23;2.60;;;1.02;;
27408;SDS011;20413;50.782;7.152;2023-02-26T10:24:53;3.83;;;1.27;;
27408;SDS011;20413;50.782;7.152;2023-02-26T10:28:07;2.72;;;1.00;;
27408;SDS011;20413;50.782;7.152;2023-02-26T10:30:26;2.15;;;1.35;;
27408;SDS011;20413;50.782;7.152;2023-02-26T10:35:25;2.30;;;1.05;;
27408;SDS011;20413;50.782;7.152;2023-02-26T10:38:15;1.00;;;0.80;;
27408;SDS011;20413;50.782;7.152;2023-02-26T10:40:43;4.07;;;1.55;;
27408;SDS011;20413;50.782;7.152;2023-02-26T10:43:21;6.70;;;2.15;;
27408;SDS011;20413;50.782;7.152;2023-02-26T10:45:59;2.10;;;1.00;;
27408;SDS011;20413;50.782;7.152;2023-02-26T10:51:41;3.85;;;1.35;;
27408;SDS011;20413;50.782;7.152;2023-02-26T10:54:15;1.35;;;0.90;;
27408;SDS011;20413;50.782;7.152;2023-02-26T10:56:48;1.25;;;0.90;;
27408;SDS011;20413;50.782;7.152;2023-02-26T10:59:13;2.78;;;0.88;;
27408;SDS011;20413;50.782;7.152;2023-02-26T11:01:39;5.03;;;1.00;;
27408;SDS011;20413;50.782;7.152;2023-02-26T11:04:12;1.50;;;1.10;;
27408;SDS011;20413;50.782;7.152;2023-02-26T11:06:46;3.13;;;0.82;;
27408;SDS011;20413;50.782;7.152;2023-02-26T11:12:00;5.15;;;1.30;;
27408;SDS011;20413;50.782;7.152;2023-02-26T11:14:28;4.57;;;1.10;;
27408;SDS011;20413;50.782;7.152;2023-02-26T11:16:57;2.88;;;1.10;;
27408;SDS011;20413;50.782;7.152;2023-02-26T11:19:27;1.92;;;1.10;;
27408;SDS011;20413;50.782;7.152;2023-02-26T11:21:59;1.77;;;0.85;;
27408;SDS011;20413;50.782;7.152;2023-02-26T11:24:29;4.15;;;0.88;;
27408;SDS011;20413;50.782;7.152;2023-02-26T11:27:01;3.05;;;0.80;;
27408;SDS011;20413;50.782;7.152;2023-02-26T11:29:39;2.85;;;0.90;;
27408;SDS011;20413;50.782;7.152;2023-02-26T11:32:13;3.67;;;1.30;;
27408;SDS011;20413;50.782;7.152;2023-02-26T11:34:46;0.93;;;0.75;;
27408;SDS011;20413;50.782;7.152;2023-02-26T11:37:15;2.22;;;1.00;;
27408;SDS011;20413;50.782;7.152;2023-02-26T11:39:55;3.65;;;0.95;;
27408;SDS011;20413;50.782;7.152;2023-02-26T11:42:23;1.85;;;0.90;;
27408;SDS011;20413;50.782;7.152;2023-02-26T11:44:50;1.17;;;0.65;;
27408;SDS011;20413;50.782;7.152;2023-02-26T11:47:17;2.72;;;0.80;;
27408;SDS011;20413;50.782;7.152;2023-02-26T11:49:55;3.05;;;0.80;;
27408;SDS011;20413;50.782;7.152;2023-02-26T11:52:31;1.60;;;0.98;;
27408;SDS011;20413;50.782;7.152;2023-02-26T11:55:00;2.13;;;0.70;;
27408;SDS011;20413;50.782;7.152;2023-02-26T11:57:28;2.58;;;0.75;;
27408;SDS011;20413;50.782;7.152;2023-02-26T11:59:56;1.13;;;0.82;;
27408;SDS011;20413;50.782;7.152;2023-02-26T12:02:25;3.63;;;0.85;;
27408;SDS011;20413;50.782;7.152;2023-02-26T12:04:56;2.47;;;0.60;;
27408;SDS011;20413;50.782;7.152;2023-02-26T12:07:24;1.35;;;0.60;;
27408;SDS011;20413;50.782;7.152;2023-02-26T12:09:50;1.60;;;0.80;;
27408;SDS011;20413;50.782;7.152;2023-02-26T12:12:26;4.03;;;0.80;;
27408;SDS011;20413;50.782;7.152;2023-02-26T12:15:14;1.00;;;0.70;;
27408;SDS011;20413;50.782;7.152;2023-02-26T12:17:46;2.72;;;1.17;;
27408;SDS011;20413;50.782;7.152;2023-02-26T12:20:35;4.00;;;1.02;;
27408;SDS011;20413;50.782;7.152;2023-02-26T12:34:45;4.90;;;2.70;;
27408;SDS011;20413;50.782;7.152;2023-02-26T12:59:38;10.13;;;4.75;;
27408;SDS011;20413;50.782;7.152;2023-02-26T13:02:27;3.40;;;1.63;;
27408;SDS011;20413;50.782;7.152;2023-02-26T13:10:28;1.75;;;1.30;;
27408;SDS011;20413;50.782;7.152;2023-02-26T13:21:27;1.70;;;0.60;;
27408;SDS011;20413;50.782;7.152;2023-02-26T13:23:59;2.03;;;0.57;;
27408;SDS011;20413;50.782;7.152;2023-02-26T13:26:29;2.00;;;1.10;;
27408;SDS011;20413;50.782;7.152;2023-02-26T13:29:05;1.98;;;1.08;;
27408;SDS011;20413;50.782;7.152;2023-02-26T13:31:49;2.70;;;1.40;;
27408;SDS011;20413;50.782;7.152;2023-02-26T13:34:32;3.75;;;1.13;;
27408;SDS011;20413;50.782;7.152;2023-02-26T13:37:21;1.98;;;0.90;;
27408;SDS011;20413;50.782;7.152;2023-02-26T13:51:05;2.20;;;0.93;;
27408;SDS011;20413;50.782;7.152;2023-02-26T13:53:51;2.88;;;1.40;;
27408;SDS011;20413;50.782;7.152;2023-02-26T13:56:23;2.45;;;1.05;;
27408;SDS011;20413;50.782;7.152;2023-02-26T14:11:56;1.17;;;0.60;;
27408;SDS011;20413;50.782;7.152;2023-02-26T14:14:28;2.47;;;0.93;;
27408;SDS011;20413;50.782;7.152;2023-02-26T14:22:36;1.00;;;0.70;;
27408;SDS011;20413;50.782;7.152;2023-02-26T14:25:19;1.92;;;0.80;;
27408;SDS011;20413;50.782;7.152;2023-02-26T14:28:17;2.13;;;1.00;;
27408;SDS011;20413;50.782;7.152;2023-02-26T14:30:51;4.03;;;2.08;;
27408;SDS011;20413;50.782;7.152;2023-02-26T14:33:31;2.65;;;1.60;;
27408;SDS011;20413;50.782;7.152;2023-02-26T14:36:05;2.72;;;1.90;;
27408;SDS011;20413;50.782;7.152;2023-02-26T14:44:02;6.50;;;1.02;;
27408;SDS011;20413;50.782;7.152;2023-02-26T14:46:39;3.55;;;0.90;;
27408;SDS011;20413;50.782;7.152;2023-02-26T14:49:12;2.37;;;0.70;;
27408;SDS011;20413;50.782;7.152;2023-02-26T14:52:01;2.70;;;1.27;;
27408;SDS011;20413;50.782;7.152;2023-02-26T14:57:39;1.38;;;0.80;;
27408;SDS011;20413;50.782;7.152;2023-02-26T15:08:54;2.10;;;0.85;;
27408;SDS011;20413;50.782;7.152;2023-02-26T15:14:48;26.00;;;12.23;;
27408;SDS011;20413;50.782;7.152;2023-02-26T15:22:43;12.35;;;5.18;;
27408;SDS011;20413;50.782;7.152;2023-02-26T15:25:31;26.15;;;10.95;;
27408;SDS011;20413;50.782;7.152;2023-02-26T15:28:03;12.98;;;6.05;;
27408;SDS011;20413;50.782;7.152;2023-02-26T15:30:31;13.25;;;7.32;;
27408;SDS011;20413;50.782;7.152;2023-02-26T15:32:58;16.05;;;8.43;;
27408;SDS011;20413;50.782;7.152;2023-02-26T15:35:26;6.93;;;4.50;;
27408;SDS011;20413;50.782;7.152;2023-02-26T15:37:54;8.02;;;4.07;;
27408;SDS011;20413;50.782;7.152;2023-02-26T15:40:22;3.17;;;1.80;;
27408;SDS011;20413;50.782;7.152;2023-02-26T15:42:50;24.17;;;10.43;;
27408;SDS011;20413;50.782;7.152;2023-02-26T15:45:24;2.70;;;1.45;;
27408;SDS011;20413;50.782;7.152;2023-02-26T15:48:02;1.60;;;1.40;;
27408;SDS011;20413;50.782;7.152;2023-02-26T15:50:32;11.27;;;5.18;;
27408;SDS011;20413;50.782;7.152;2023-02-26T15:53:03;1.58;;;1.15;;
27408;SDS011;20413;50.782;7.152;2023-02-26T15:55:31;4.70;;;2.17;;
27408;SDS011;20413;50.782;7.152;2023-02-26T15:58:04;2.28;;;1.30;;
27408;SDS011;20413;50.782;7.152;2023-02-26T16:00:32;1.73;;;0.70;;
27408;SDS011;20413;50.782;7.152;2023-02-26T16:03:00;3.05;;;1.00;;
27408;SDS011;20413;50.782;7.152;2023-02-26T16:05:26;2.60;;;1.95;;
27408;SDS011;20413;50.782;7.152;2023-02-26T16:07:53;1.65;;;1.00;;
27408;SDS011;20413;50.782;7.152;2023-02-26T16:12:55;6.10;;;3.35;;
27408;SDS011;20413;50.782;7.152;2023-02-26T16:15:33;3.03;;;1.88;;
27408;SDS011;20413;50.782;7.152;2023-02-26T16:18:01;2.95;;;2.45;;
27408;SDS011;20413;50.782;7.152;2023-02-26T16:20:33;3.55;;;1.55;;
27408;SDS011;20413;50.782;7.152;2023-02-26T16:23:05;2.33;;;1.77;;
27408;SDS011;20413;50.782;7.152;2023-02-26T16:25:36;4.20;;;1.92;;
27408;SDS011;20413;50.782;7.152;2023-02-26T16:28:09;2.03;;;1.33;;
27408;SDS011;20413;50.782;7.152;2023-02-26T16:30:41;1.85;;;1.05;;
27408;SDS011;20413;50.782;7.152;2023-02-26T16:33:10;1.77;;;0.80;;
27408;SDS011;20413;50.782;7.152;2023-02-26T16:35:42;2.22;;;1.17;;
27408;SDS011;20413;50.782;7.152;2023-02-26T16:38:32;4.22;;;2.08;;
27408;SDS011;20413;50.782;7.152;2023-02-26T16:40:59;2.58;;;1.35;;
27408;SDS011;20413;50.782;7.152;2023-02-26T16:43:33;2.53;;;1.42;;
27408;SDS011;20413;50.782;7.152;2023-02-26T16:46:36;7.88;;;2.50;;
27408;SDS011;20413;50.782;7.152;2023-02-26T16:49:10;3.50;;;1.95;;
27408;SDS011;20413;50.782;7.152;2023-02-26T16:51:57;3.45;;;1.60;;
27408;SDS011;20413;50.782;7.152;2023-02-26T16:54:25;10.00;;;4.17;;
27408;SDS011;20413;50.782;7.152;2023-02-26T16:59:30;3.10;;;1.83;;
27408;SDS011;20413;50.782;7.152;2023-02-26T17:02:02;3.22;;;2.50;;
27408;SDS011;20413;50.782;7.152;2023-02-26T17:04:34;3.50;;;2.53;;
27408;SDS011;20413;50.782;7.152;2023-02-26T17:07:01;2.50;;;1.33;;
27408;SDS011;20413;50.782;7.152;2023-02-26T17:09:36;15.30;;;4.30;;
27408;SDS011;20413;50.782;7.152;2023-02-26T17:12:15;12.13;;;4.32;;
27408;SDS011;20413;50.782;7.152;2023-02-26T17:14:45;4.63;;;2.38;;
27408;SDS011;20413;50.782;7.152;2023-02-26T17:17:15;6.43;;;2.80;;
27408;SDS011;20413;50.782;7.152;2023-02-26T17:19:42;2.35;;;1.45;;
27408;SDS011;20413;50.782;7.152;2023-02-26T17:22:10;3.95;;;1.73;;
27408;SDS011;20413;50.782;7.152;2023-02-26T17:24:38;1.70;;;1.20;;
27408;SDS011;20413;50.782;7.152;2023-02-26T17:27:05;3.50;;;1.70;;
27408;SDS011;20413;50.782;7.152;2023-02-26T17:29:35;6.15;;;2.47;;
27408;SDS011;20413;50.782;7.152;2023-02-26T17:32:04;5.63;;;3.78;;
27408;SDS011;20413;50.782;7.152;2023-02-26T17:34:33;6.70;;;3.28;;
27408;SDS011;20413;50.782;7.152;2023-02-26T17:36:59;10.18;;;3.03;;
27408;SDS011;20413;50.782;7.152;2023-02-26T17:39:29;8.18;;;3.80;;
27408;SDS011;20413;50.782;7.152;2023-02-26T17:41:55;4.15;;;2.47;;
27408;SDS011;20413;50.782;7.152;2023-02-26T17:44:21;4.38;;;2.20;;
27408;SDS011;20413;50.782;7.152;2023-02-26T17:46:47;6.25;;;2.10;;
27408;SDS011;20413;50.782;7.152;2023-02-26T17:49:12;6.03;;;2.25;;
27408;SDS011;20413;50.782;7.152;2023-02-26T17:51:38;4.45;;;1.90;;